Time;durP1;ratioP1;P1;durP2;ratioP2;P2;SDS_P1;SDS_P2;PMS_P1;PMS_P2;Temp;Humidity;BMP_temperature;BMP_pressure;BME280_temperature;BME280_humidity;BME280_pressure;Samples;Min_cycle;Max_cycle;Signal;HPM_P1;HPM_P2
2021/04/06 00:01:58;;;;;;;11.90;4.15;;;;;;;-3.11;85.77;95916.00;5070205;28;20035;-77
2021/04/06 00:04:30;;;;;;;10.57;3.80;;;;;;;-3.12;85.46;95917.75;5070351;28;20021;-77
2021/04/06 00:07:02;;;;;;;10.35;4.28;;;;;;;-3.09;85.67;95911.59;5073602;28;20501;-77
2021/04/06 00:09:31;;;;;;;10.20;4.45;;;;;;;-3.11;85.54;95916.84;5067133;28;20137;-77
2021/04/06 00:12:00;;;;;;;13.10;4.15;;;;;;;-3.06;85.03;95911.44;5054716;28;20017;-78
2021/04/06 00:14:28;;;;;;;11.77;4.10;;;;;;;-3.04;86.02;95904.47;5050470;28;20157;-76
2021/04/06 00:16:56;;;;;;;10.18;4.50;;;;;;;-3.07;85.87;95896.91;5055905;28;20195;-77
2021/04/06 00:19:25;;;;;;;11.40;5.10;;;;;;;-3.07;85.76;95891.78;5077930;28;20549;-77
2021/04/06 00:21:54;;;;;;;10.90;5.30;;;;;;;-3.17;87.00;95891.44;5047487;28;20115;-77
2021/04/06 00:24:27;;;;;;;14.25;5.30;;;;;;;-3.11;87.35;95896.25;5065173;28;20245;-76
2021/04/06 00:26:54;;;;;;;15.57;5.97;;;;;;;-3.10;87.24;95891.94;5066066;28;20029;-77
2021/04/06 00:29:26;;;;;;;11.27;5.32;;;;;;;-3.04;87.70;95896.75;5050642;28;20040;-76
2021/04/06 00:31:56;;;;;;;12.07;4.63;;;;;;;-3.06;87.16;95897.75;5051967;28;20021;-76
2021/04/06 00:34:23;;;;;;;14.35;5.70;;;;;;;-3.09;86.74;95899.56;5051441;28;20048;-77
2021/04/06 00:36:54;;;;;;;7.32;4.07;;;;;;;-3.12;86.84;95897.19;5049574;28;20244;-77
2021/04/06 00:39:28;;;;;;;8.48;3.97;;;;;;;-3.15;86.88;95888.81;5049118;28;20036;-77
2021/04/06 00:42:05;;;;;;;;;;;;;;;-3.19;86.69;95895.84;5069787;28;20031;-79
2021/04/06 00:44:34;;;;;;;8.60;3.92;;;;;;;-3.37;86.83;95899.41;5060672;28;19912;-78
2021/04/06 00:47:01;;;;;;;13.32;5.22;;;;;;;-3.42;86.91;95898.81;5071055;28;20029;-77
2021/04/06 00:49:29;;;;;;;13.30;4.22;;;;;;;-3.38;87.01;95897.78;5056107;28;20119;-77
2021/04/06 00:51:57;;;;;;;8.52;2.95;;;;;;;-3.36;86.47;95894.19;5052290;28;20027;-77
2021/04/06 00:54:24;;;;;;;5.47;2.58;;;;;;;-3.39;85.74;95890.94;5071541;28;20036;-77
2021/04/06 00:56:56;;;;;;;7.07;2.53;;;;;;;-3.45;85.53;95904.97;5086792;28;20035;-77
2021/04/06 00:59:23;;;;;;;7.28;3.00;;;;;;;-3.45;85.58;95907.56;5084294;28;20035;-77
2021/04/06 01:02:03;;;;;;;7.47;2.85;;;;;;;-3.39;85.10;95888.38;5086988;28;20116;-77
2021/04/06 01:04:32;;;;;;;6.80;2.35;;;;;;;-3.36;84.99;95885.66;5087671;28;20484;-77
2021/04/06 01:07:01;;;;;;;5.15;2.38;;;;;;;-3.29;84.92;95886.13;5064650;28;20020;-79
2021/04/06 01:09:33;;;;;;;8.88;2.83;;;;;;;-3.39;84.47;95890.94;5058849;28;20036;-77
2021/04/06 01:12:02;;;;;;;6.38;2.58;;;;;;;-3.40;84.91;95889.31;5077131;28;20518;-77
2021/04/06 01:14:30;;;;;;;7.43;2.47;;;;;;;-3.35;84.75;95893.28;5086334;28;20023;-77
2021/04/06 01:16:56;;;;;;;4.63;2.38;;;;;;;-3.46;84.25;95890.44;5078588;28;20039;-77
2021/04/06 01:19:24;;;;;;;6.65;2.20;;;;;;;-3.39;84.31;95890.94;5079451;28;20049;-78
2021/04/06 01:21:50;;;;;;;9.38;2.55;;;;;;;-3.43;84.28;95895.44;5076629;28;20023;-77
2021/04/06 01:24:17;;;;;;;7.18;2.40;;;;;;;-3.40;84.34;95897.00;5070482;28;20062;-77
2021/04/06 01:26:42;;;;;;;8.80;2.33;;;;;;;-3.43;84.02;95894.59;5083645;28;20043;-77
2021/04/06 01:29:08;;;;;;;8.10;2.77;;;;;;;-3.47;84.15;95891.38;5074191;28;20551;-76
2021/04/06 01:31:35;;;;;;;5.03;1.95;;;;;;;-3.43;83.68;95894.59;5057902;28;20447;-77
2021/04/06 01:34:03;;;;;;;7.53;2.50;;;;;;;-3.41;83.67;95880.75;5082887;28;20060;-77
2021/04/06 01:36:29;;;;;;;4.07;1.58;;;;;;;-3.35;83.33;95877.03;5083132;28;20040;-77
2021/04/06 01:38:56;;;;;;;10.55;2.08;;;;;;;-3.37;84.18;95876.28;5075745;28;20032;-77
2021/04/06 01:41:22;;;;;;;5.57;1.80;;;;;;;-3.40;84.21;95873.88;5086787;28;20035;-77
2021/04/06 01:43:50;;;;;;;4.80;1.57;;;;;;;-3.39;83.35;95865.25;5069891;28;20374;-77
2021/04/06 01:46:29;;;;;;;4.97;1.90;;;;;;;-3.48;83.84;95869.16;5062347;28;20086;-77
2021/04/06 01:48:55;;;;;;;5.72;1.98;;;;;;;-3.47;83.87;95872.56;5058232;28;20039;-77
2021/04/06 01:51:22;;;;;;;4.57;1.83;;;;;;;-3.51;84.38;95876.22;5083472;28;20024;-77
2021/04/06 01:53:47;;;;;;;6.28;2.00;;;;;;;-3.43;84.29;95866.31;5078333;28;20040;-76
2021/04/06 01:56:16;;;;;;;8.10;2.43;;;;;;;-3.46;84.63;95875.03;5067911;28;20643;-77
2021/04/06 01:58:49;;;;;;;4.93;1.92;;;;;;;-3.37;83.92;95863.44;5083838;28;20029;-77
2021/04/06 02:01:21;;;;;;;5.63;1.95;;;;;;;-3.37;84.04;95866.00;5079302;28;20036;-77
2021/04/06 02:03:54;;;;;;;3.92;1.83;;;;;;;-3.39;84.36;95853.22;5059615;28;20398;-77
2021/04/06 02:06:25;;;;;;;6.28;3.42;;;;;;;-3.33;83.76;95850.31;5075865;28;20410;-77
2021/04/06 02:08:53;;;;;;;6.78;2.20;;;;;;;-3.37;83.21;95840.28;5071980;28;20130;-77
2021/04/06 02:11:29;;;;;;;7.03;2.70;;;;;;;-3.43;82.78;95840.63;5075975;28;20489;-77
2021/04/06 02:14:09;;;;;;;6.50;1.75;;;;;;;-3.37;82.46;95840.28;5063406;28;20041;-77
2021/04/06 02:16:52;;;;;;;6.72;1.65;;;;;;;-3.37;81.81;95837.72;5047883;28;20048;-77
2021/04/06 02:19:29;;;;;;;5.80;1.88;;;;;;;-3.43;81.86;95841.44;5063615;28;20089;-78
2021/04/06 02:22:01;;;;;;;5.65;1.40;;;;;;;-3.54;81.52;95843.78;5084085;28;20036;-77
2021/04/06 02:24:37;;;;;;;6.65;1.40;;;;;;;-3.49;81.53;95848.66;5056641;28;20036;-77
2021/04/06 02:27:25;;;;;;;7.55;1.67;;;;;;;-3.50;81.65;95847.84;5079210;28;20025;-77
2021/04/06 02:29:55;;;;;;;4.75;1.40;;;;;;;-3.48;81.85;95837.47;5073827;28;20032;-79
2021/04/06 02:32:24;;;;;;;4.22;1.55;;;;;;;-3.49;81.78;95830.66;5075976;28;20036;-77
2021/04/06 02:34:52;;;;;;;4.32;1.65;;;;;;;-3.59;82.19;95828.63;5074416;28;20024;-77
2021/04/06 02:37:41;;;;;;;3.78;2.45;;;;;;;-3.59;82.06;95833.75;5065033;28;20036;-77
2021/04/06 02:40:12;;;;;;;3.47;1.02;;;;;;;-3.58;82.16;95820.00;5062646;28;20382;-77
2021/04/06 02:42:47;;;;;;;6.03;1.52;;;;;;;-3.68;81.57;95823.97;5073940;28;20036;-77
2021/04/06 02:45:16;;;;;;;5.32;1.20;;;;;;;-3.76;81.89;95836.38;5084120;28;20024;-78
2021/04/06 02:47:49;;;;;;;11.18;2.42;;;;;;;-3.71;82.04;95829.28;5063470;28;20031;-76
2021/04/06 02:50:19;;;;;;;4.78;1.00;;;;;;;-3.68;82.17;95823.16;5065346;28;20090;-77
2021/04/06 02:52:45;;;;;;;10.98;1.83;;;;;;;-3.69;81.90;95821.47;5078633;28;20036;-77
2021/04/06 02:55:12;;;;;;;9.07;1.60;;;;;;;-3.63;81.71;95816.00;5060104;28;20070;-77
2021/04/06 02:57:45;;;;;;;5.63;1.75;;;;;;;-3.67;82.49;95811.94;5061638;28;20730;-77
2021/04/06 03:00:28;;;;;;;4.43;1.42;;;;;;;-3.60;82.38;95818.41;5050063;28;20052;-77
2021/04/06 03:02:57;;;;;;;4.97;1.65;;;;;;;-3.57;82.89;95810.53;5068386;28;20036;-77
2021/04/06 03:05:41;;;;;;;6.75;1.52;;;;;;;-3.59;83.02;95820.91;5068559;28;20041;-78
2021/04/06 03:08:07;;;;;;;6.15;1.40;;;;;;;-3.62;83.34;95818.50;5076395;28;20073;-77
2021/04/06 03:10:35;;;;;;;10.03;1.93;;;;;;;-3.51;83.61;95820.47;5057894;28;20041;-77
2021/04/06 03:13:06;;;;;;;4.78;1.83;;;;;;;-3.50;83.53;95816.16;5064875;28;20031;-77
2021/04/06 03:15:32;;;;;;;3.78;1.75;;;;;;;-3.43;84.19;95817.47;5059727;28;20035;-77
2021/04/06 03:17:59;;;;;;;8.83;1.97;;;;;;;-3.42;84.48;95814.00;5071927;28;20020;-77
2021/04/06 03:20:26;;;;;;;7.72;1.58;;;;;;;-3.43;84.65;95796.91;5073142;28;20036;-77
2021/04/06 03:22:54;;;;;;;5.63;2.03;;;;;;;-3.39;84.28;95793.25;5062272;28;20028;-77
2021/04/06 03:25:21;;;;;;;8.98;2.28;;;;;;;-3.28;85.06;95780.66;5061742;28;20392;-77
2021/04/06 03:27:49;;;;;;;7.80;2.40;;;;;;;-3.29;84.69;95781.53;5071556;28;20111;-76
2021/04/06 03:30:31;;;;;;;6.20;1.73;;;;;;;-3.31;84.47;95780.81;5073344;28;20485;-78
2021/04/06 03:33:17;;;;;;;5.78;1.85;;;;;;;-3.31;84.32;95788.53;5068179;28;20036;-77
2021/04/06 03:35:47;;;;;;;6.97;2.25;;;;;;;-3.29;84.57;95791.81;5077398;28;20062;-77
2021/04/06 03:38:13;;;;;;;5.85;1.85;;;;;;;-3.26;84.52;95788.25;5078709;28;20067;-77
2021/04/06 03:40:40;;;;;;;5.30;1.87;;;;;;;-3.30;84.52;95790.19;5076275;28;20106;-77
2021/04/06 03:43:24;;;;;;;5.80;1.95;;;;;;;-3.30;84.31;95791.94;5073252;28;20032;-77
2021/04/06 03:46:01;;;;;;;3.92;1.77;;;;;;;-3.22;84.27;95792.31;5055021;28;20256;-77
2021/04/06 03:48:31;;;;;;;4.20;1.80;;;;;;;-3.18;84.62;95801.53;5062235;28;20039;-79
2021/04/06 03:50:58;;;;;;;5.63;1.85;;;;;;;-3.23;84.62;95803.53;5080101;28;20103;-77
2021/04/06 03:53:26;;;;;;;8.05;2.22;;;;;;;-3.20;84.23;95803.34;5062096;28;20109;-77
2021/04/06 03:56:08;;;;;;;9.63;1.98;;;;;;;-3.19;84.25;95805.00;5067272;28;20066;-77
2021/04/06 03:58:58;;;;;;;5.68;2.00;;;;;;;-3.14;84.58;95801.25;5060145;28;20037;-78
2021/04/06 04:01:21;;;;;;;10.20;2.50;;;;;;;-3.19;84.16;95790.41;5065006;28;20041;-78
2021/04/06 04:03:47;;;;;;;9.80;2.40;;;;;;;-3.19;84.50;95794.72;5058026;28;20577;-78
2021/04/06 04:06:31;;;;;;;5.33;2.13;;;;;;;-3.14;83.80;95793.53;5061843;28;20075;-79
2021/04/06 04:08:56;;;;;;;5.45;2.22;;;;;;;-3.14;82.98;95798.69;5050112;28;20027;-77
2021/04/06 04:11:23;;;;;;;8.00;1.97;;;;;;;-3.19;84.17;95797.28;5070784;28;20034;-77
2021/04/06 04:13:48;;;;;;;8.13;2.00;;;;;;;-3.15;84.17;95801.38;5056178;28;20031;-77
2021/04/06 04:16:15;;;;;;;6.87;2.50;;;;;;;-3.18;84.15;95794.66;5067753;28;20040;-77
2021/04/06 04:18:41;;;;;;;4.40;1.90;;;;;;;-3.19;83.64;95795.53;5035926;28;20053;-77
2021/04/06 04:21:10;;;;;;;9.45;2.72;;;;;;;-3.25;83.42;95806.19;5062461;28;20032;-77
2021/04/06 04:23:36;;;;;;;8.13;2.72;;;;;;;-3.15;83.48;95806.50;5069703;28;20065;-78
2021/04/06 04:26:02;;;;;;;5.60;2.20;;;;;;;-3.16;83.97;95812.53;5056637;28;20054;-78
2021/04/06 04:28:28;;;;;;;6.38;2.10;;;;;;;-3.11;83.09;95808.81;5060182;28;20031;-77
2021/04/06 04:30:54;;;;;;;4.53;1.97;;;;;;;-3.17;83.75;95804.00;5067140;28;20094;-77
2021/04/06 04:33:20;;;;;;;4.63;1.97;;;;;;;-3.11;83.92;95802.84;5053823;28;20040;-77
2021/04/06 04:35:46;;;;;;;7.93;1.60;;;;;;;-3.17;83.73;95783.44;5060087;28;20024;-77
2021/04/06 04:38:12;;;;;;;6.10;2.20;;;;;;;-3.20;83.77;95799.03;5063794;28;20466;-78
2021/04/06 04:40:43;;;;;;;8.40;2.10;;;;;;;-3.05;83.67;95797.34;5059846;28;20651;-78
2021/04/06 04:43:10;;;;;;;5.38;1.77;;;;;;;-3.12;83.93;95785.72;5060129;28;20032;-78
2021/04/06 04:45:36;;;;;;;4.43;1.92;;;;;;;-3.15;83.97;95789.34;5078405;28;20650;-78
2021/04/06 04:48:03;;;;;;;6.28;2.13;;;;;;;-3.11;83.97;95783.09;5059018;28;20504;-78
2021/04/06 04:50:28;;;;;;;8.13;2.60;;;;;;;-3.15;83.24;95791.06;5068898;28;20032;-79
2021/04/06 04:52:54;;;;;;;6.60;2.13;;;;;;;-3.19;83.66;95790.41;5061634;28;20502;-77
2021/04/06 04:55:21;;;;;;;11.70;2.63;;;;;;;-3.08;83.65;95792.38;5054527;28;20458;-78
2021/04/06 04:57:47;;;;;;;10.55;3.97;;;;;;;-3.08;83.90;95788.06;5068553;28;20055;-78
2021/04/06 05:00:15;;;;;;;8.35;3.15;;;;;;;-3.14;83.63;95790.97;5075530;28;20035;-78
2021/04/06 05:02:41;;;;;;;7.30;2.67;;;;;;;-3.09;84.19;95793.28;5057616;28;20036;-78
2021/04/06 05:05:08;;;;;;;6.05;2.25;;;;;;;-2.99;83.58;95801.31;5047858;28;20486;-77
2021/04/06 05:07:38;;;;;;;8.02;2.33;;;;;;;-2.98;83.29;95802.97;5070900;28;20080;-77
2021/04/06 05:10:08;;;;;;;26.80;10.65;;;;;;;-2.98;83.58;95787.53;5055811;28;20481;-77
2021/04/06 05:12:35;;;;;;;106.82;46.28;;;;;;;-2.95;83.42;95792.50;5074402;28;20111;-77
2021/04/06 05:15:02;;;;;;;188.05;84.60;;;;;;;-2.93;83.15;95795.81;5065220;28;20024;-79
2021/04/06 05:17:27;;;;;;;95.28;48.05;;;;;;;-3.06;83.57;95794.84;5077833;28;20047;-76
2021/04/06 05:19:53;;;;;;;21.50;13.80;;;;;;;-3.01;83.02;95798.00;5072645;28;20032;-77
2021/04/06 05:22:19;;;;;;;7.23;2.97;;;;;;;-2.94;83.13;95800.13;5046648;28;20029;-75
2021/04/06 05:24:45;;;;;;;8.27;2.83;;;;;;;-2.92;83.06;95794.88;5052941;28;20025;-76
2021/04/06 05:27:11;;;;;;;8.57;2.90;;;;;;;-2.91;82.71;95806.84;5062783;28;20090;-77
2021/04/06 05:29:36;;;;;;;9.07;3.87;;;;;;;-2.90;83.26;95805.94;5072327;28;20080;-76
2021/04/06 05:32:03;;;;;;;8.17;3.10;;;;;;;-2.80;83.10;95798.50;5065400;28;20090;-77
2021/04/06 05:34:29;;;;;;;6.97;2.65;;;;;;;-2.76;83.19;95803.38;5070571;28;20062;-77
2021/04/06 05:36:55;;;;;;;7.00;2.73;;;;;;;-2.74;82.62;95801.56;5069573;28;20032;-77
2021/04/06 05:39:21;;;;;;;7.25;3.20;;;;;;;-2.80;83.24;95808.81;5062108;28;20028;-77
2021/04/06 05:41:48;;;;;;;7.53;4.00;;;;;;;-2.80;83.08;95809.63;5063711;28;20115;-75
2021/04/06 05:44:15;;;;;;;9.40;3.13;;;;;;;-2.78;83.18;95810.38;5057392;28;20028;-77
2021/04/06 05:46:44;;;;;;;6.72;2.78;;;;;;;-2.77;83.12;95812.03;5089023;28;20040;-75
2021/04/06 05:49:12;;;;;;;8.85;2.88;;;;;;;-2.67;83.28;95807.19;5057337;28;20530;-76
2021/04/06 05:51:39;;;;;;;9.00;3.45;;;;;;;-2.72;83.58;95804.84;5065415;28;21600;-75
2021/04/06 05:54:07;;;;;;;10.63;3.30;;;;;;;-2.71;83.52;95798.00;5048662;28;20033;-75
2021/04/06 05:56:33;;;;;;;10.45;2.83;;;;;;;-2.72;84.29;95799.72;5046387;28;20152;-77
2021/04/06 05:58:59;;;;;;;6.57;3.25;;;;;;;-2.59;84.11;95794.69;5077169;28;20520;-78
2021/04/06 06:01:29;;;;;;;7.75;2.55;;;;;;;-2.57;84.59;95794.59;5071705;28;20403;-77
2021/04/06 06:03:55;;;;;;;10.02;2.88;;;;;;;-2.58;83.63;95801.50;5075835;28;20028;-75
2021/04/06 06:06:22;;;;;;;11.30;3.25;;;;;;;-2.64;84.83;95797.53;5058865;28;20033;-76
2021/04/06 06:09:00;;;;;;;8.00;2.58;;;;;;;-2.58;85.08;95803.22;5067344;28;20028;-76
2021/04/06 06:11:26;;;;;;;6.97;3.00;;;;;;;-2.72;85.18;95799.72;5061256;28;20032;-75
2021/04/06 06:13:53;;;;;;;8.52;3.30;;;;;;;-2.49;84.84;95806.09;5059502;28;20019;-76
2021/04/06 06:16:21;;;;;;;15.07;4.75;;;;;;;-2.45;85.13;95810.16;5071808;28;20476;-76
2021/04/06 06:18:56;;;;;;;10.77;5.18;;;;;;;-2.63;85.12;95817.19;5074376;28;20037;-76
2021/04/06 06:21:41;;;;;;;12.82;4.53;;;;;;;-2.64;84.26;95819.88;5080548;28;20067;-74
2021/04/06 06:24:10;;;;;;;8.35;2.92;;;;;;;-2.53;84.57;95814.09;5060106;28;20029;-75
2021/04/06 06:26:36;;;;;;;7.38;2.67;;;;;;;-2.51;84.25;95810.53;5070867;28;20122;-76
2021/04/06 06:29:15;;;;;;;12.98;3.13;;;;;;;-2.48;84.87;95812.91;5069119;28;20028;-76
2021/04/06 06:31:55;;;;;;;9.52;3.65;;;;;;;-2.50;84.40;95814.75;5056439;28;20038;-76
2021/04/06 06:34:38;;;;;;;16.63;6.00;;;;;;;-2.43;83.95;95813.47;5058780;28;20044;-78
2021/04/06 06:37:17;;;;;;;9.60;3.67;;;;;;;-2.44;84.09;95816.97;5069833;28;20063;-76
2021/04/06 06:39:49;;;;;;;9.85;3.67;;;;;;;-2.34;83.38;95819.00;5060448;28;20155;-75
2021/04/06 06:42:18;;;;;;;9.07;3.50;;;;;;;-2.46;83.56;95823.94;5075090;28;20043;-78
2021/04/06 06:44:44;;;;;;;9.73;3.50;;;;;;;-2.40;83.48;95822.75;5080435;28;20036;-76
2021/04/06 06:47:31;;;;;;;7.40;3.20;;;;;;;-2.44;84.79;95829.84;5071382;28;20039;-77
2021/04/06 06:50:11;;;;;;;8.05;3.72;;;;;;;-2.47;83.85;95826.63;5068120;28;20397;-76
2021/04/06 06:52:37;;;;;;;10.13;3.72;;;;;;;-2.39;84.59;95824.41;5073272;28;20060;-76
2021/04/06 06:55:24;;;;;;;8.13;2.80;;;;;;;-2.27;84.11;95823.69;5055264;28;20024;-76
2021/04/06 06:58:01;;;;;;;6.75;3.00;;;;;;;-2.14;83.89;95816.06;5069251;28;20024;-76
2021/04/06 07:00:27;;;;;;;8.68;3.58;;;;;;;-2.26;83.66;95812.47;5076139;28;20043;-76
2021/04/06 07:02:53;;;;;;;7.13;3.63;;;;;;;-2.09;83.44;95818.34;5072814;28;20024;-76
2021/04/06 07:05:20;;;;;;;10.30;3.77;;;;;;;-2.16;83.22;95817.88;5066123;28;20037;-76
2021/04/06 07:07:55;;;;;;;7.07;3.05;;;;;;;-2.14;82.86;95827.19;5045372;28;20077;-76
2021/04/06 07:10:24;;;;;;;10.95;4.22;;;;;;;-2.05;82.82;95818.06;5075542;28;20062;-76
2021/04/06 07:12:56;;;;;;;11.57;3.42;;;;;;;-2.23;82.80;95819.19;5053164;28;20023;-76
2021/04/06 07:15:23;;;;;;;9.13;4.15;;;;;;;-2.15;83.74;95822.97;5081104;28;20893;-75
2021/04/06 07:17:50;;;;;;;9.20;3.83;;;;;;;-2.22;83.21;95829.38;5045378;28;20027;-76
2021/04/06 07:20:20;;;;;;;8.98;3.17;;;;;;;-1.97;83.33;95817.63;5051804;28;20115;-76
2021/04/06 07:22:48;;;;;;;8.80;3.63;;;;;;;-1.93;83.24;95813.94;5067050;28;20036;-76
2021/04/06 07:25:14;;;;;;;7.90;3.50;;;;;;;-1.87;82.67;95813.56;5063404;28;20043;-75
2021/04/06 07:27:44;;;;;;;59.30;21.02;;;;;;;-1.73;81.90;95828.19;5064474;28;20041;-76
2021/04/06 07:30:12;;;;;;;18.55;6.18;;;;;;;-1.80;81.76;95825.16;5051335;28;20043;-76
2021/04/06 07:32:42;;;;;;;26.20;13.88;;;;;;;-1.84;82.36;95813.38;5081944;28;20123;-75
2021/04/06 07:35:10;;;;;;;11.73;6.55;;;;;;;-1.90;82.42;95824.88;5058392;28;20035;-76
2021/04/06 07:37:40;;;;;;;11.65;6.45;;;;;;;-1.80;82.54;95826.91;5066584;28;20035;-76
2021/04/06 07:40:12;;;;;;;10.48;4.35;;;;;;;-1.60;82.93;95828.25;5055375;28;20529;-76
2021/04/06 07:42:42;;;;;;;13.20;5.78;;;;;;;-1.64;82.81;95834.50;5078113;28;20379;-76
2021/04/06 07:45:30;;;;;;;13.03;6.77;;;;;;;-1.55;81.67;95828.78;5056394;28;20020;-76
2021/04/06 07:47:56;;;;;;;10.80;3.97;;;;;;;-1.34;81.08;95832.63;5065234;28;22405;-76
2021/04/06 07:50:43;;;;;;;8.23;3.87;;;;;;;-1.53;81.84;95834.69;5066986;28;20464;-76
2021/04/06 07:53:23;;;;;;;9.50;3.45;;;;;;;-1.37;81.19;95837.16;5056361;28;20046;-76
2021/04/06 07:55:49;;;;;;;15.07;4.10;;;;;;;-1.08;81.38;95825.78;5061243;28;20044;-76
2021/04/06 07:58:43;;;;;;;10.90;3.97;;;;;;;-1.08;80.35;95827.53;5036822;28;20451;-77
2021/04/06 08:01:10;;;;;;;10.50;4.27;;;;;;;-0.95;81.19;95834.38;5069483;28;20047;-76
2021/04/06 08:03:56;;;;;;;10.20;4.13;;;;;;;-0.76;80.77;95833.22;5069517;28;20828;-77
2021/04/06 08:06:40;;;;;;;11.90;5.33;;;;;;;-1.07;79.75;95834.38;5068516;28;20461;-76
2021/04/06 08:09:27;;;;;;;7.15;2.28;;;;;;;-1.45;81.21;95835.84;5063168;28;20482;-76
2021/04/06 08:12:15;;;;;;;10.87;3.37;;;;;;;-1.16;81.49;95824.63;5078325;28;20028;-76
2021/04/06 08:15:00;;;;;;;9.93;3.40;;;;;;;-1.24;81.56;95838.84;5074283;28;20542;-76
2021/04/06 08:17:25;;;;;;;11.40;4.20;;;;;;;-1.12;80.99;95838.97;5074884;28;20450;-77
2021/04/06 08:19:55;;;;;;;11.30;3.77;;;;;;;-1.22;80.20;95839.56;5047911;28;20471;-76
2021/04/06 08:22:32;;;;;;;13.17;4.00;;;;;;;-0.86;79.74;95838.16;5050232;28;20028;-76
2021/04/06 08:25:20;;;;;;;8.57;2.70;;;;;;;-0.86;78.85;95838.16;5036478;28;20497;-76
2021/04/06 08:27:50;;;;;;;7.17;3.07;;;;;;;-0.89;79.57;95840.91;5058302;28;21021;-76
2021/04/06 08:30:16;;;;;;;7.67;3.27;;;;;;;-0.81;78.92;95843.00;5056386;28;20589;-76
2021/04/06 08:33:03;;;;;;;6.83;2.87;;;;;;;-0.66;77.70;95842.00;5071721;28;20470;-76
2021/04/06 08:35:48;;;;;;;10.90;3.70;;;;;;;-0.36;77.31;95840.94;5069082;28;20512;-76
2021/04/06 08:38:23;;;;;;;8.60;3.40;;;;;;;-0.46;76.86;95842.47;5061198;28;20470;-76
2021/04/06 08:40:56;;;;;;;10.00;3.47;;;;;;;-0.23;76.82;95839.19;5052748;28;20465;-77
2021/04/06 08:43:32;;;;;;;8.73;3.17;;;;;;;-0.19;76.49;95839.78;5052834;28;20459;-76
2021/04/06 08:46:00;;;;;;;8.03;3.43;;;;;;;-0.41;77.52;95841.22;5057777;28;20507;-76
2021/04/06 08:51:41;;;;;;;9.17;4.00;;;;;;;0.15;75.83;95833.97;5071413;28;20498;-76
2021/04/06 08:54:08;;;;;;;14.33;3.57;;;;;;;0.42;74.63;95831.22;5058116;28;20462;-76
2021/04/06 08:56:36;;;;;;;10.30;3.27;;;;;;;0.59;72.72;95827.47;5065616;28;20545;-79
2021/04/06 08:59:31;;;;;;;10.53;3.10;;;;;;;1.18;76.63;95832.72;5056662;28;20500;-79
2021/04/06 09:02:12;;;;;;;21.13;12.93;;;;;;;0.77;72.64;95833.13;5070373;28;20535;-77
2021/04/06 09:04:43;;;;;;;23.97;15.13;;;;;;;0.35;74.05;95832.59;5065459;28;20501;-77
2021/04/06 09:07:18;;;;;;;22.83;10.50;;;;;;;0.41;74.98;95837.34;5079458;28;20492;-77
2021/04/06 09:09:44;;;;;;;41.23;21.47;;;;;;;-0.04;75.57;95843.91;5066927;28;20474;-77
2021/04/06 09:12:11;;;;;;;17.00;7.53;;;;;;;-0.04;75.66;95836.97;5050668;28;20495;-77
2021/04/06 09:14:40;;;;;;;23.77;7.07;;;;;;;0.10;75.69;95838.66;5058628;28;20520;-77
2021/04/06 09:17:06;;;;;;;31.23;11.13;;;;;;;-0.07;76.14;95838.94;5040379;28;20467;-77
2021/04/06 09:19:36;;;;;;;47.07;20.30;;;;;;;0.00;76.86;95842.78;5062227;28;20447;-76
2021/04/06 09:22:06;;;;;;;13.73;5.37;;;;;;;-0.10;77.77;95846.91;5061350;28;20032;-77
2021/04/06 09:24:33;;;;;;;12.30;3.97;;;;;;;0.07;78.22;95832.84;5064839;28;20513;-77
2021/04/06 09:26:59;;;;;;;10.67;4.13;;;;;;;-0.07;77.18;95834.63;5068222;28;21029;-76
2021/04/06 09:29:29;;;;;;;12.20;5.13;;;;;;;-0.04;78.06;95839.56;5075016;28;20457;-76
2021/04/06 09:31:57;;;;;;;14.60;6.00;;;;;;;0.38;77.34;95832.38;5073823;28;20422;-77
2021/04/06 09:34:26;;;;;;;8.10;3.00;;;;;;;0.60;76.17;95820.53;5065098;28;20500;-76
2021/04/06 09:36:56;;;;;;;15.90;4.73;;;;;;;0.43;74.98;95825.13;5070652;28;20457;-76
2021/04/06 09:39:23;;;;;;;8.03;3.53;;;;;;;0.62;76.52;95822.06;5047128;28;20541;-78
2021/04/06 09:41:49;;;;;;;10.80;3.57;;;;;;;0.70;75.61;95818.94;5050927;28;20519;-77
2021/04/06 09:44:18;;;;;;;12.07;3.60;;;;;;;0.91;75.31;95820.00;5044752;28;22201;-76
2021/04/06 09:46:49;;;;;;;17.27;6.90;;;;;;;0.55;73.12;95817.44;5082247;28;20458;-77
2021/04/06 09:49:16;;;;;;;9.60;3.63;;;;;;;1.00;73.86;95807.31;5076700;28;20463;-77
2021/04/06 09:51:51;;;;;;;13.67;3.90;;;;;;;1.50;71.71;95819.16;5071066;28;20435;-78
2021/04/06 09:54:22;;;;;;;5.63;1.93;;;;;;;1.58;72.60;95818.59;5090385;28;20466;-77
2021/04/06 09:56:49;;;;;;;8.07;2.73;;;;;;;1.62;72.57;95818.25;5050492;28;20485;-76
2021/04/06 09:59:16;;;;;;;9.50;3.20;;;;;;;1.23;71.30;95819.41;5074976;28;20541;-76
2021/04/06 10:01:50;;;;;;;7.63;2.43;;;;;;;1.12;72.56;95819.38;5077469;28;20483;-76
2021/04/06 10:04:33;;;;;;;7.10;2.97;;;;;;;0.86;72.49;95810.91;5079086;28;20445;-76
2021/04/06 10:07:18;;;;;;;9.97;2.70;;;;;;;1.02;72.06;95810.63;5065946;28;20040;-76
2021/04/06 10:09:52;;;;;;;10.50;2.70;;;;;;;0.94;72.34;95809.44;5087253;28;20819;-76
2021/04/06 10:12:20;;;;;;;6.23;3.00;;;;;;;0.63;74.03;95808.19;5051797;28;20510;-76
2021/04/06 10:14:46;;;;;;;10.53;3.00;;;;;;;0.40;74.24;95814.16;5075021;28;20442;-78
2021/04/06 10:17:19;;;;;;;10.83;3.13;;;;;;;0.75;73.49;95813.44;5068163;28;20459;-75
2021/04/06 10:20:01;;;;;;;7.55;2.53;;;;;;;0.88;74.08;95807.28;5084347;28;20454;-79
2021/04/06 10:22:42;;;;;;;6.20;2.33;;;;;;;0.72;72.42;95808.50;5053995;28;20040;-77
2021/04/06 10:25:09;;;;;;;13.90;6.50;;;;;;;0.83;72.64;95811.13;5057888;28;20459;-76
2021/04/06 10:27:45;;;;;;;9.13;3.17;;;;;;;0.39;74.28;95802.16;5053145;28;20464;-76
2021/04/06 10:30:16;;;;;;;12.60;3.53;;;;;;;0.52;74.79;95800.38;5051315;28;20557;-76
2021/04/06 10:32:46;;;;;;;11.83;3.50;;;;;;;0.74;74.69;95806.59;5058062;28;20525;-76
2021/04/06 10:35:24;;;;;;;8.23;3.00;;;;;;;0.60;73.48;95808.41;5070829;28;20466;-76
2021/04/06 10:37:57;;;;;;;14.47;4.93;;;;;;;0.93;73.17;95806.94;5052907;28;20470;-76
2021/04/06 10:40:34;;;;;;;16.50;7.93;;;;;;;0.86;70.55;95800.56;5082015;28;20462;-76
2021/04/06 10:43:09;;;;;;;31.43;18.87;;;;;;;1.30;71.45;95801.66;5046173;28;20481;-76
2021/04/06 10:45:41;;;;;;;20.43;8.97;;;;;;;1.55;71.12;95798.09;5059602;28;20459;-76
2021/04/06 10:48:11;;;;;;;11.93;3.53;;;;;;;1.45;70.52;95794.53;5047764;28;20467;-75
2021/04/06 10:50:46;;;;;;;7.87;2.60;;;;;;;1.48;68.06;95784.78;5070228;28;20478;-76
2021/04/06 10:53:19;;;;;;;9.20;2.77;;;;;;;3.14;65.06;95769.25;5049593;28;20557;-75
2021/04/06 10:55:52;;;;;;;6.43;2.40;;;;;;;3.47;63.86;95776.88;5070249;28;20474;-76
2021/04/06 10:58:23;;;;;;;7.67;2.10;;;;;;;3.07;63.27;95767.13;5074724;28;21041;-75
2021/04/06 11:00:56;;;;;;;5.17;2.00;;;;;;;2.89;64.17;95765.22;5062448;28;20446;-76
2021/04/06 11:03:22;;;;;;;11.02;2.22;;;;;;;2.43;65.72;95766.28;5055139;28;20482;-75
2021/04/06 11:05:48;;;;;;;4.67;1.70;;;;;;;2.01;65.13;95760.88;5076385;28;20035;-75
2021/04/06 11:08:25;;;;;;;7.93;2.37;;;;;;;1.95;65.18;95758.78;5076930;28;20524;-75
2021/04/06 11:10:56;;;;;;;11.00;2.93;;;;;;;1.79;66.36;95753.94;5060944;28;20115;-75
2021/04/06 11:13:23;;;;;;;7.63;1.77;;;;;;;1.61;65.06;95751.81;5049721;28;20462;-75
2021/04/06 11:15:50;;;;;;;5.40;1.77;;;;;;;1.65;64.89;95748.03;5062171;28;20823;-74
2021/04/06 11:18:16;;;;;;;8.47;2.40;;;;;;;3.01;60.74;95744.25;5065170;28;20509;-75
2021/04/06 11:20:42;;;;;;;4.73;1.80;;;;;;;4.47;58.88;95724.19;5057030;28;21331;-75
2021/04/06 11:23:08;;;;;;;7.37;1.77;;;;;;;2.97;58.82;95737.66;5070655;28;20537;-75
2021/04/06 11:25:34;;;;;;;6.43;1.73;;;;;;;5.02;54.51;95719.28;5064058;28;20465;-76
2021/04/06 11:28:00;;;;;;;4.80;1.70;;;;;;;4.51;53.95;95727.34;5063016;28;20476;-75
2021/04/06 11:30:31;;;;;;;7.73;2.07;;;;;;;3.62;57.31;95730.59;5070865;28;20040;-78
2021/04/06 11:32:59;;;;;;;7.50;2.30;;;;;;;4.26;56.33;95724.28;5043438;28;21014;-74
2021/04/06 11:35:25;;;;;;;8.97;2.00;;;;;;;3.89;56.05;95724.84;5055164;28;20532;-76
2021/04/06 11:37:51;;;;;;;8.43;1.83;;;;;;;4.09;55.79;95717.94;5057738;28;20466;-76
2021/04/06 11:40:16;;;;;;;6.43;1.90;;;;;;;4.82;54.13;95707.22;5082446;28;20646;-76
2021/04/06 11:42:42;;;;;;;10.53;2.67;;;;;;;3.64;56.28;95714.84;5067985;28;20025;-75
2021/04/06 11:45:09;;;;;;;7.50;1.77;;;;;;;3.16;55.14;95710.19;5074407;28;20029;-76
2021/04/06 11:47:34;;;;;;;5.47;1.27;;;;;;;3.12;55.24;95711.38;5066158;28;20804;-76
2021/04/06 11:50:06;;;;;;;7.87;1.43;;;;;;;2.99;56.61;95704.63;5072984;28;20462;-75
2021/04/06 11:52:32;;;;;;;6.27;2.43;;;;;;;3.04;58.18;95712.84;5073418;28;20032;-76